デリー の空港の天気 - METARとTAF

インディラ・ガンディー国際空港 ( VIDP / DEL ) - インド デリー
飛行場実況気象(Metar)
観測時間07/17 15:00 IST (07/17 09:30 UTC)
風向・風速南東 3m/s
視程3500m
天気現象煙霧
全天の4割程度の雲 雲底高度 910m
少しの雲 雲底高度 1070m
全天の8割程度の雲 雲底高度 3050m
気温36℃
湿度60%
気圧998hPa
METARVIDP 170930Z 14005KT 3500 HZ SCT030 FEW035CB BKN100 36/27 Q0998 TEMPO TSRA
過去の天気等 Google飛行場航空写真 Wunderground天気予報

過去48時間のMETAR

飛行場予報(TAF)
発表時間: 7/17 13:30 IST (7/17 08:00 UTC)
予報対象時間: 17日14時 IST ~ 17日23時 IST
風向・風速東南東 3m/s
視程3500m
天気現象煙霧 弱い雨
全天の4割程度の雲 雲底高度 910m
全天の8割程度の雲 雲底高度 2740m
17日14時 IST ~ 17日19時 IST に一時的に
風向・風速南東 5m/s 瞬間風速 10m/s
視程1500m
天気現象雷雨
少しの積乱雲 雲底高度 1070m
全天を覆う雲 雲底高度 2440m
17日20時 IST ~ 17日22時 IST に徐々に
風向・風速東 3m/s
視程2500m
天気現象煙霧 もや
TAF VIDP 170800Z 1709/1718 12006KT 3500 HZ -RA SCT030 BKN090
TEMPO 1709/1714 13010G20KT 1500 TSRA FEW035CB OVC080
BECMG 1715/1717 09005KT 2500 HZ BR